Time;durP1;ratioP1;P1;durP2;ratioP2;P2;SDS_P1;SDS_P2;PMS_P1;PMS_P2;Temp;Humidity;BMP_temperature;BMP_pressure;BME280_temperature;BME280_humidity;BME280_pressure;Samples;Min_cycle;Max_cycle;Signal;HPM_P1;HPM_P2
2023/07/03 00:01:17;;;;;;;16.48;5.38;;;18.10;99.90;;;;;;5074661;28;20227;-82
2023/07/03 00:03:44;;;;;;;18.88;5.63;;;18.10;94.10;;;;;;5074872;28;20619;-78
2023/07/03 00:06:11;;;;;;;15.68;4.95;;;18.10;17.30;;;;;;5084703;28;20240;-83
2023/07/03 00:08:38;;;;;;;20.30;5.30;;;18.10;97.90;;;;;;5093774;28;20204;-86
2023/07/03 00:11:06;;;;;;;22.60;6.03;;;18.10;1.00;;;;;;5091874;28;20226;-80
2023/07/03 00:13:33;;;;;;;17.52;5.47;;;18.10;54.70;;;;;;5074486;28;20208;-86
2023/07/03 00:16:00;;;;;;;14.77;5.18;;;18.10;24.50;;;;;;5074148;28;20190;-89
2023/07/03 00:18:29;;;;;;;14.95;5.10;;;18.10;27.00;;;;;;5074203;28;20207;-78
2023/07/03 00:20:56;;;;;;;17.42;5.05;;;18.10;54.60;;;;;;5075263;28;20236;-82
2023/07/03 00:23:24;;;;;;;12.55;3.28;;;18.10;23.40;;;;;;5074014;28;20194;-81
2023/07/03 00:25:51;;;;;;;13.85;3.92;;;18.10;1.00;;;;;;5074487;28;20276;-78
2023/07/03 00:28:19;;;;;;;12.30;4.25;;;18.00;99.90;;;;;;5074437;28;20258;-84
2023/07/03 00:30:46;;;;;;;10.07;3.20;;;18.00;99.90;;;;;;5073940;28;20225;-81
2023/07/03 00:33:13;;;;;;;9.82;3.33;;;18.10;99.90;;;;;;5073950;28;20292;-81
2023/07/03 00:35:41;;;;;;;12.07;3.15;;;18.10;99.90;;;;;;5074234;28;20197;-88
2023/07/03 00:38:08;;;;;;;15.13;4.30;;;18.10;99.90;;;;;;5073705;28;20206;-87
2023/07/03 00:40:35;;;;;;;10.32;3.58;;;18.10;99.90;;;;;;5075223;28;20562;-90
2023/07/03 00:43:03;;;;;;;11.93;2.78;;;18.10;98.20;;;;;;5078555;28;20260;-86
2023/07/03 00:45:31;;;;;;;10.38;3.25;;;18.10;92.80;;;;;;5077840;28;20855;-87
2023/07/03 00:47:58;;;;;;;10.35;2.85;;;18.10;92.10;;;;;;5078686;28;20508;-86
2023/07/03 00:50:26;;;;;;;8.13;2.63;;;18.10;88.40;;;;;;5077984;28;20576;-88
2023/07/03 00:52:59;;;;;;;8.25;2.55;;;18.20;76.20;;;;;;5078549;28;20300;-86
2023/07/03 00:55:27;;;;;;;7.75;2.30;;;18.10;52.80;;;;;;5077687;28;20272;-86
2023/07/03 00:57:53;;;;;;;8.60;2.85;;;18.10;68.40;;;;;;5078301;28;20209;-81
2023/07/03 01:00:22;;;;;;;10.48;3.47;;;18.10;69.70;;;;;;5078258;28;20228;-87
2023/07/03 01:02:58;;;;;;;8.73;2.90;;;18.10;71.80;;;;;;5097144;28;20213;-87
2023/07/03 01:05:30;;;;;;;7.82;2.65;;;18.00;75.90;;;;;;5096894;28;20267;-85
2023/07/03 01:08:00;;;;;;;8.35;2.70;;;18.00;66.40;;;;;;5096903;28;20254;-86
2023/07/03 01:10:29;;;;;;;10.13;3.22;;;18.00;42.50;;;;;;5097036;28;20620;-81
2023/07/03 01:12:59;;;;;;;12.57;2.70;;;18.00;49.60;;;;;;5094767;28;20245;-83
2023/07/03 01:15:31;;;;;;;6.72;2.50;;;17.90;45.20;;;;;;5076392;28;20613;-85
2023/07/03 01:18:01;;;;;;;9.57;2.80;;;17.90;30.10;;;;;;5078482;28;20533;-87
2023/07/03 01:20:33;;;;;;;8.52;2.92;;;17.90;26.60;;;;;;5097216;28;20275;-88
2023/07/03 01:23:05;;;;;;;7.88;2.50;;;17.90;27.50;;;;;;5096919;28;20253;-90
2023/07/03 01:25:38;;;;;;;6.93;2.50;;;17.80;29.20;;;;;;5097554;28;20196;-86
2023/07/03 01:28:08;;;;;;;5.53;2.00;;;17.80;20.70;;;;;;5097486;28;20195;-87
2023/07/03 01:30:37;;;;;;;5.50;2.10;;;17.80;6.80;;;;;;5098084;28;20204;-84
2023/07/03 01:33:06;;;;;;;9.48;2.58;;;17.80;10.20;;;;;;5096211;28;20192;-86
2023/07/03 01:35:33;;;;;;;7.65;2.17;;;17.80;24.20;;;;;;5092600;28;20197;-88
2023/07/03 01:38:02;;;;;;;8.88;1.88;;;17.80;22.40;;;;;;5077104;28;20193;-89
2023/07/03 01:40:29;;;;;;;7.22;2.30;;;17.80;15.40;;;;;;5077624;28;20915;-85
2023/07/03 01:42:59;;;;;;;9.32;3.10;;;17.70;16.00;;;;;;5077585;28;20540;-86
2023/07/03 01:45:26;;;;;;;9.95;2.85;;;17.70;7.60;;;;;;5077556;28;20609;-86
2023/07/03 01:47:54;;;;;;;8.32;2.63;;;17.70;8.10;;;;;;5077207;28;20217;-88
2023/07/03 01:50:24;;;;;;;6.45;2.50;;;17.70;10.80;;;;;;5077032;28;20217;-87
2023/07/03 01:52:55;;;;;;;8.85;2.35;;;17.70;2.80;;;;;;5076763;28;20212;-85
2023/07/03 01:55:32;;;;;;;10.25;2.80;;;17.70;1.60;;;;;;5076395;28;20247;-83
2023/07/03 01:58:06;;;;;;;8.07;2.40;;;17.70;10.60;;;;;;5076892;28;20200;-82
2023/07/03 02:00:40;;;;;;;9.10;2.65;;;17.70;16.70;;;;;;5076912;28;20185;-84
2023/07/03 02:03:13;;;;;;;8.60;1.95;;;17.70;19.60;;;;;;5091174;28;20261;-88
2023/07/03 02:05:40;;;;;;;8.20;2.20;;;17.70;22.90;;;;;;5097189;28;20250;-89
2023/07/03 02:08:10;;;;;;;5.75;1.95;;;17.70;22.60;;;;;;5096677;28;20196;-89
2023/07/03 02:10:37;;;;;;;6.50;1.88;;;17.60;26.00;;;;;;5092759;28;20216;-90
2023/07/03 02:13:06;;;;;;;8.77;2.88;;;17.60;20.70;;;;;;5076924;28;20236;-84
2023/07/03 02:15:33;;;;;;;10.60;2.33;;;17.60;25.90;;;;;;5076258;28;20197;-88
2023/07/03 02:18:01;;;;;;;8.45;2.45;;;17.60;25.40;;;;;;5076361;28;20302;-85
2023/07/03 02:20:29;;;;;;;9.93;2.75;;;17.50;30.60;;;;;;5094214;28;20200;-82
2023/07/03 02:22:57;;;;;;;11.65;2.30;;;17.50;34.50;;;;;;5096397;28;20200;-88
2023/07/03 02:25:24;;;;;;;11.55;2.53;;;17.50;38.80;;;;;;5076213;28;20283;-88
2023/07/03 02:27:51;;;;;;;6.75;2.13;;;17.40;29.90;;;;;;5076053;28;20211;-81
2023/07/03 02:30:19;;;;;;;7.47;2.10;;;17.40;29.60;;;;;;5075512;28;20517;-86
2023/07/03 02:32:46;;;;;;;9.43;2.13;;;17.40;32.00;;;;;;5075769;28;20661;-86
2023/07/03 02:35:13;;;;;;;10.73;2.53;;;17.40;41.70;;;;;;5076032;28;20209;-87
2023/07/03 02:37:40;;;;;;;7.85;2.17;;;17.30;55.80;;;;;;5075943;28;20255;-86
2023/07/03 02:40:10;;;;;;;7.47;2.85;;;17.30;64.60;;;;;;5076442;28;20220;-84
2023/07/03 02:42:37;;;;;;;8.27;2.42;;;17.20;50.30;;;;;;5076044;28;20535;-83
2023/07/03 02:45:05;;;;;;;4.70;1.60;;;17.20;48.30;;;;;;5076236;28;20240;-88
2023/07/03 02:47:36;;;;;;;6.25;2.15;;;17.30;44.40;;;;;;5075947;28;20299;-85
2023/07/03 02:50:03;;;;;;;8.25;2.00;;;17.30;47.30;;;;;;5075688;28;20191;-89
2023/07/03 02:52:30;;;;;;;6.88;2.20;;;17.20;59.80;;;;;;5074768;28;20201;-91
2023/07/03 02:54:57;;;;;;;8.57;2.38;;;17.20;77.40;;;;;;5074608;28;20293;-86
2023/07/03 02:57:24;;;;;;;9.45;2.55;;;17.10;91.60;;;;;;5074129;28;20255;-84
2023/07/03 02:59:51;;;;;;;11.30;2.30;;;17.20;90.20;;;;;;5075327;28;20586;-88
2023/07/03 03:02:19;;;;;;;7.97;2.45;;;17.10;88.80;;;;;;5075611;28;20205;-84
2023/07/03 03:04:48;;;;;;;10.93;2.80;;;17.10;93.40;;;;;;5074937;28;20229;-91
2023/07/03 03:07:16;;;;;;;8.67;2.33;;;17.00;96.10;;;;;;5075852;28;20197;-87
2023/07/03 03:09:43;;;;;;;9.13;2.47;;;17.00;86.90;;;;;;5075573;28;20243;-87
2023/07/03 03:12:10;;;;;;;8.77;2.25;;;16.90;91.40;;;;;;5074887;28;20225;-88
2023/07/03 03:14:37;;;;;;;8.13;2.47;;;16.90;88.00;;;;;;5074952;28;20594;-92
2023/07/03 03:17:04;;;;;;;6.28;2.25;;;16.90;89.50;;;;;;5075347;28;20205;-80
2023/07/03 03:19:31;;;;;;;10.35;2.50;;;16.90;90.20;;;;;;5074848;28;20259;-84
2023/07/03 03:22:00;;;;;;;10.32;2.40;;;16.80;89.30;;;;;;5075138;28;20197;-87
2023/07/03 03:24:27;;;;;;;7.13;2.10;;;16.80;90.60;;;;;;5075521;28;20379;-85
2023/07/03 03:26:54;;;;;;;8.30;1.98;;;16.80;79.20;;;;;;5075482;28;20208;-87
2023/07/03 03:29:21;;;;;;;7.33;2.07;;;16.80;66.90;;;;;;5075892;28;20224;-87
2023/07/03 03:31:48;;;;;;;8.33;2.17;;;16.80;75.00;;;;;;5075924;28;20225;-87
2023/07/03 03:34:15;;;;;;;6.95;2.75;;;16.70;84.30;;;;;;5075697;28;20213;-85
2023/07/03 03:36:43;;;;;;;9.07;2.20;;;16.70;84.50;;;;;;5075621;28;20201;-89
2023/07/03 03:39:11;;;;;;;10.02;3.17;;;16.70;92.00;;;;;;5080395;28;20252;-88
2023/07/03 03:41:38;;;;;;;9.27;2.83;;;16.60;95.30;;;;;;5095970;28;20231;-87
2023/07/03 03:44:05;;;;;;;12.40;2.93;;;16.70;99.90;;;;;;5095803;28;20722;-83
2023/07/03 03:46:32;;;;;;;12.02;2.70;;;16.60;99.90;;;;;;5095062;28;20232;-87
2023/07/03 03:48:59;;;;;;;9.57;2.17;;;16.60;99.90;;;;;;5081850;28;20236;-88
2023/07/03 03:51:26;;;;;;;9.43;2.37;;;16.60;99.90;;;;;;5075507;28;20303;-87
2023/07/03 03:53:54;;;;;;;10.40;3.50;;;16.60;99.90;;;;;;5075278;28;20244;-88
2023/07/03 03:56:22;;;;;;;11.27;3.40;;;16.60;99.90;;;;;;5075515;28;20296;-90
2023/07/03 03:58:49;;;;;;;11.50;2.90;;;16.60;99.90;;;;;;5075116;28;20202;-86
2023/07/03 04:01:16;;;;;;;11.90;3.07;;;16.60;99.90;;;;;;5084547;28;20208;-87
2023/07/03 04:03:43;;;;;;;6.90;2.50;;;16.60;99.90;;;;;;5095421;28;20204;-86
2023/07/03 04:06:10;;;;;;;10.57;3.30;;;16.60;99.90;;;;;;5095350;28;20327;-88
2023/07/03 04:08:37;;;;;;;11.40;3.17;;;16.50;99.90;;;;;;5095076;28;20245;-82
2023/07/03 04:11:04;;;;;;;9.33;2.63;;;16.60;99.90;;;;;;5094939;28;20244;-83
2023/07/03 04:13:33;;;;;;;13.67;3.90;;;16.60;99.90;;;;;;5095715;28;20522;-87
2023/07/03 04:16:01;;;;;;;15.45;4.00;;;16.60;99.90;;;;;;5096200;28;20270;-85
2023/07/03 04:18:29;;;;;;;10.07;3.28;;;16.60;99.90;;;;;;5099668;28;20287;-90
2023/07/03 04:20:56;;;;;;;10.43;2.78;;;16.60;99.90;;;;;;5099195;28;20192;-90
2023/07/03 04:23:24;;;;;;;14.05;3.15;;;16.70;99.90;;;;;;5098700;28;20196;-87
2023/07/03 04:25:51;;;;;;;13.38;3.50;;;16.70;99.90;;;;;;5098070;28;20201;-86
2023/07/03 04:28:19;;;;;;;9.40;2.67;;;16.70;99.90;;;;;;5098560;28;20651;-87
2023/07/03 04:30:48;;;;;;;11.83;3.57;;;16.70;99.90;;;;;;5098596;28;20223;-85
2023/07/03 04:33:16;;;;;;;13.43;3.23;;;16.70;99.90;;;;;;5099138;28;20235;-88
2023/07/03 04:35:43;;;;;;;11.57;3.45;;;16.80;99.90;;;;;;5098552;28;20231;-81
2023/07/03 04:38:10;;;;;;;14.57;3.33;;;16.80;99.90;;;;;;5079473;28;20673;-83
2023/07/03 04:40:38;;;;;;;15.50;4.00;;;16.80;99.90;;;;;;5077980;28;20472;-82
2023/07/03 04:43:07;;;;;;;12.00;3.00;;;16.80;99.90;;;;;;5078320;28;20198;-86
2023/07/03 04:45:40;;;;;;;7.90;2.80;;;16.80;99.90;;;;;;5078924;28;20284;-89
2023/07/03 04:48:09;;;;;;;9.20;3.13;;;16.70;99.90;;;;;;5078556;28;20516;-85
2023/07/03 04:50:36;;;;;;;8.53;3.00;;;16.70;99.90;;;;;;5077829;28;20196;-84
2023/07/03 04:53:03;;;;;;;10.90;2.80;;;16.70;99.90;;;;;;5083987;28;20499;-90
2023/07/03 04:55:30;;;;;;;8.03;2.60;;;16.70;99.90;;;;;;5098219;28;20264;-86
2023/07/03 04:57:59;;;;;;;8.73;3.22;;;16.70;99.90;;;;;;5097993;28;20192;-84
2023/07/03 05:00:27;;;;;;;9.73;2.25;;;16.70;99.90;;;;;;5098482;28;20581;-81
2023/07/03 05:02:58;;;;;;;9.48;2.65;;;16.70;99.90;;;;;;5097935;28;20193;-85
2023/07/03 05:05:27;;;;;;;7.57;2.35;;;16.70;99.90;;;;;;5097728;28;20236;-84
2023/07/03 05:07:54;;;;;;;13.63;2.50;;;16.80;99.90;;;;;;5097845;28;20205;-79
2023/07/03 05:10:22;;;;;;;8.95;2.50;;;16.90;99.90;;;;;;5098217;28;20243;-79
2023/07/03 05:12:50;;;;;;;11.90;2.65;;;16.90;99.90;;;;;;5097672;28;20220;-79
2023/07/03 05:15:19;;;;;;;9.50;2.78;;;16.90;99.90;;;;;;5098055;28;20185;-85
2023/07/03 05:17:50;;;;;;;8.15;2.35;;;16.90;99.90;;;;;;5079058;28;20258;-83
2023/07/03 05:20:19;;;;;;;8.57;2.40;;;17.00;99.90;;;;;;5080069;28;20206;-88
2023/07/03 05:22:47;;;;;;;6.80;1.90;;;17.00;99.90;;;;;;5098808;28;20193;-90
2023/07/03 05:25:16;;;;;;;6.45;1.88;;;17.10;99.90;;;;;;5098133;28;20597;-91
2023/07/03 05:27:43;;;;;;;8.75;2.38;;;17.20;99.90;;;;;;5098101;28;20204;-87
2023/07/03 05:30:12;;;;;;;9.70;2.10;;;17.20;99.90;;;;;;5098389;28;20279;-86
2023/07/03 05:32:39;;;;;;;9.70;2.83;;;17.40;99.90;;;;;;5098222;28;20229;-87
2023/07/03 05:35:08;;;;;;;7.78;2.38;;;17.50;99.90;;;;;;5078830;28;20719;-89
2023/07/03 05:37:35;;;;;;;10.05;2.83;;;17.70;99.90;;;;;;5077924;28;20284;-89
2023/07/03 05:40:08;;;;;;;13.52;2.47;;;17.80;99.90;;;;;;5077495;28;20208;-82
2023/07/03 05:42:35;;;;;;;7.88;2.20;;;18.00;99.90;;;;;;5077599;28;20624;-82
2023/07/03 05:45:02;;;;;;;10.32;2.97;;;18.30;99.90;;;;;;5077017;28;20205;-90
2023/07/03 05:47:29;;;;;;;7.30;2.60;;;18.50;99.90;;;;;;5077451;28;20225;-92
2023/07/03 05:49:57;;;;;;;9.25;2.47;;;18.60;90.40;;;;;;5077142;28;20247;-86
2023/07/03 05:52:24;;;;;;;11.98;2.10;;;18.70;72.70;;;;;;5077077;28;20615;-87
2023/07/03 05:54:51;;;;;;;4.97;1.73;;;18.80;63.00;;;;;;5077395;28;20236;-86
2023/07/03 05:57:22;;;;;;;4.93;2.28;;;18.90;75.30;;;;;;5084047;22;20528;-88
2023/07/03 05:59:50;;;;;;;9.75;2.20;;;19.00;77.50;;;;;;5076818;28;20217;-80
2023/07/03 06:02:17;;;;;;;7.45;1.70;;;19.20;84.00;;;;;;5076651;28;20228;-83
2023/07/03 06:04:44;;;;;;;6.50;1.85;;;19.30;56.60;;;;;;5076949;28;20276;-83
2023/07/03 06:07:13;;;;;;;10.25;2.20;;;19.50;65.10;;;;;;5091554;22;20232;-87
2023/07/03 06:09:40;;;;;;;8.88;2.60;;;19.60;61.60;;;;;;5095830;28;20281;-85
2023/07/03 06:12:08;;;;;;;12.80;2.33;;;19.80;92.70;;;;;;5076817;28;20217;-90
2023/07/03 06:14:36;;;;;;;13.02;2.55;;;20.10;63.90;;;;;;5076592;28;20700;-88
2023/07/03 06:17:03;;;;;;;8.57;2.15;;;20.20;62.30;;;;;;5077405;28;20292;-86
2023/07/03 06:19:31;;;;;;;6.35;2.40;;;20.30;61.50;;;;;;5077284;28;20246;-92
2023/07/03 06:21:58;;;;;;;8.75;2.92;;;20.40;83.00;;;;;;5076800;28;20232;-84
2023/07/03 06:24:25;;;;;;;6.85;2.63;;;20.20;99.90;;;;;;5076055;28;20272;-83
2023/07/03 06:26:53;;;;;;;8.07;2.30;;;20.10;99.90;;;;;;5076292;28;20204;-89
2023/07/03 06:29:20;;;;;;;8.73;2.17;;;20.20;99.90;;;;;;5075642;28;20209;-82
2023/07/03 06:31:51;;;;;;;7.38;1.90;;;20.40;99.90;;;;;;5075286;28;20243;-81
2023/07/03 06:34:18;;;;;;;7.10;1.92;;;20.60;99.90;;;;;;5075780;28;20260;-79
2023/07/03 06:36:45;;;;;;;5.80;2.30;;;20.90;99.90;;;;;;5075721;28;20285;-84
2023/07/03 06:39:12;;;;;;;8.88;2.00;;;21.20;99.90;;;;;;5090194;28;20196;-85
2023/07/03 06:41:39;;;;;;;6.35;2.03;;;21.30;99.90;;;;;;5096379;28;20198;-86
2023/07/03 06:44:11;;;;;;;10.63;2.75;;;21.20;99.90;;;;;;5095639;28;20665;-84
2023/07/03 06:46:38;;;;;;;8.60;2.85;;;21.20;99.90;;;;;;5077603;28;20243;-80
2023/07/03 06:49:06;;;;;;;6.47;2.10;;;21.10;99.90;;;;;;5076328;28;20243;-85
2023/07/03 06:51:34;;;;;;;10.10;2.00;;;21.20;99.90;;;;;;5076190;28;20232;-92
2023/07/03 06:54:01;;;;;;;5.15;1.92;;;21.40;99.90;;;;;;5076326;28;20259;-86
2023/07/03 06:56:29;;;;;;;6.43;2.53;;;21.40;99.90;;;;;;5075351;28;20236;-87
2023/07/03 06:58:56;;;;;;;10.20;2.55;;;21.30;99.90;;;;;;5076126;28;20205;-86
2023/07/03 07:01:27;;;;;;;6.80;2.20;;;21.50;99.90;;;;;;5075573;28;20702;-92
2023/07/03 07:03:54;;;;;;;8.45;2.30;;;21.70;99.90;;;;;;5075684;28;20188;-86
2023/07/03 07:06:24;;;;;;;8.35;2.85;;;21.70;99.90;;;;;;5075882;28;20247;-84
2023/07/03 07:08:52;;;;;;;8.75;2.30;;;21.80;99.90;;;;;;5075834;28;20251;-87
2023/07/03 07:11:22;;;;;;;4.07;2.03;;;21.60;99.90;;;;;;5074663;28;20518;-82
2023/07/03 07:13:51;;;;;;;7.72;1.80;;;21.50;99.90;;;;;;5074890;28;20540;-81
2023/07/03 07:16:21;;;;;;;5.93;2.20;;;21.70;99.90;;;;;;5074930;28;20196;-82
2023/07/03 07:18:51;;;;;;;6.18;2.22;;;21.90;99.90;;;;;;5075769;28;20539;-90
2023/07/03 07:21:18;;;;;;;7.28;2.30;;;22.10;99.90;;;;;;5076092;28;20220;-91
2023/07/03 07:23:51;;;;;;;6.85;2.08;;;22.40;99.90;;;;;;5075934;28;20251;-93
2023/07/03 07:26:17;;;;;;;10.35;2.20;;;22.70;1.00;;;;;;5075081;28;20220;-92
2023/07/03 07:28:44;;;;;;;6.28;1.92;;;22.80;1.00;;;;;;5075622;28;20231;-82
2023/07/03 07:31:12;;;;;;;5.22;1.90;;;23.00;1.00;;;;;;5074552;28;20207;-81
2023/07/03 07:33:39;;;;;;;4.75;1.67;;;23.10;99.90;;;;;;5074724;28;20229;-91
2023/07/03 07:36:12;;;;;;;6.32;2.03;;;23.10;1.00;;;;;;5075241;28;20206;-82
2023/07/03 07:38:38;;;;;;;5.00;2.13;;;23.30;99.90;;;;;;5074994;28;20205;-90
2023/07/03 07:41:07;;;;;;;8.23;2.33;;;23.30;1.00;;;;;;5075699;28;20203;-86
2023/07/03 07:43:34;;;;;;;6.75;2.30;;;23.40;99.90;;;;;;5074559;28;20510;-81
2023/07/03 07:46:01;;;;;;;7.22;2.17;;;23.50;1.00;;;;;;5076148;28;20219;-81
2023/07/03 07:48:28;;;;;;;9.70;2.08;;;23.50;99.90;;;;;;5073979;28;20275;-77
2023/07/03 07:50:55;;;;;;;8.55;2.28;;;23.50;99.90;;;;;;5082343;28;20254;-79
2023/07/03 07:53:22;;;;;;;8.90;2.25;;;23.50;99.90;;;;;;5097802;28;20354;-76
2023/07/03 07:55:49;;;;;;;6.95;2.00;;;23.50;99.90;;;;;;5088500;28;20228;-87
2023/07/03 07:58:17;;;;;;;6.93;1.90;;;23.50;99.90;;;;;;5078772;28;20233;-90
2023/07/03 08:00:45;;;;;;;6.75;2.10;;;23.50;99.90;;;;;;5078767;28;20240;-86
2023/07/03 08:03:12;;;;;;;4.85;1.67;;;23.50;99.90;;;;;;5078859;28;20233;-78
2023/07/03 08:05:38;;;;;;;5.50;1.70;;;23.40;99.90;;;;;;5078182;28;20205;-89
2023/07/03 08:08:06;;;;;;;5.97;2.13;;;23.20;99.90;;;;;;5078272;28;20237;-84
2023/07/03 08:10:33;;;;;;;4.63;1.98;;;22.90;99.90;;;;;;5077919;28;20204;-82
2023/07/03 08:13:00;;;;;;;6.57;1.80;;;23.00;99.90;;;;;;5078599;28;20617;-91
2023/07/03 08:15:28;;;;;;;5.07;1.50;;;23.30;99.90;;;;;;5078679;28;20193;-87
2023/07/03 08:17:55;;;;;;;7.68;1.42;;;23.50;99.90;;;;;;5078241;28;20284;-76
2023/07/03 08:20:22;;;;;;;5.40;1.80;;;23.60;99.90;;;;;;5077991;28;20228;-89
2023/07/03 08:22:49;;;;;;;7.75;1.90;;;23.50;99.90;;;;;;5078813;28;20229;-82
2023/07/03 08:25:17;;;;;;;7.90;2.25;;;23.60;99.90;;;;;;5078142;28;20197;-81
2023/07/03 08:27:46;;;;;;;7.03;2.00;;;23.70;99.90;;;;;;5076911;28;20228;-87
2023/07/03 08:30:14;;;;;;;7.63;2.15;;;23.80;99.90;;;;;;5078330;28;20189;-90
2023/07/03 08:32:43;;;;;;;6.22;1.83;;;23.80;99.90;;;;;;5077894;28;20304;-83
2023/07/03 08:35:10;;;;;;;7.90;1.88;;;23.50;99.90;;;;;;5077396;28;20251;-81
2023/07/03 08:37:37;;;;;;;9.18;2.55;;;23.40;99.90;;;;;;5096870;28;20208;-85
2023/07/03 08:40:06;;;;;;;7.68;2.20;;;23.50;99.90;;;;;;5097948;28;20574;-77
2023/07/03 08:42:39;;;;;;;5.18;1.95;;;23.30;99.90;;;;;;5092183;28;20208;-84
2023/07/03 08:45:11;;;;;;;7.18;2.42;;;23.30;99.90;;;;;;5077863;28;20189;-81
2023/07/03 08:47:40;;;;;;;7.90;2.38;;;23.30;99.90;;;;;;5077637;28;20268;-81
2023/07/03 08:50:11;;;;;;;7.13;2.08;;;23.00;99.90;;;;;;5076419;28;20228;-85
2023/07/03 08:52:42;;;;;;;6.40;1.73;;;22.70;99.90;;;;;;5077478;28;20264;-89
2023/07/03 08:55:15;;;;;;;7.35;2.35;;;22.70;99.90;;;;;;5077136;28;20213;-80
2023/07/03 08:57:42;;;;;;;7.68;2.25;;;22.90;99.90;;;;;;5076997;28;20593;-84
2023/07/03 09:00:11;;;;;;;9.18;2.28;;;22.70;99.90;;;;;;5077378;28;20228;-80
2023/07/03 09:02:45;;;;;;;9.43;2.60;;;22.50;99.90;;;;;;5083047;28;20201;-82
2023/07/03 09:05:27;;;;;;;7.90;2.40;;;22.20;99.90;;;;;;5098118;28;20216;-79
2023/07/03 09:07:59;;;;;;;9.48;2.30;;;21.90;99.90;;;;;;5097147;28;20272;-91
2023/07/03 09:10:31;;;;;;;12.20;2.55;;;21.90;99.90;;;;;;5096262;28;20184;-88
2023/07/03 09:13:12;;;;;;;5.93;2.00;;;21.80;99.90;;;;;;5097475;28;20215;-78
2023/07/03 09:15:44;;;;;;;7.82;2.20;;;21.80;99.90;;;;;;5098020;28;20557;-91
2023/07/03 09:18:15;;;;;;;7.07;2.30;;;21.80;99.90;;;;;;5097029;28;20604;-79
2023/07/03 09:20:44;;;;;;;8.05;2.10;;;21.60;99.90;;;;;;5080786;28;20215;-76
2023/07/03 09:23:18;;;;;;;6.22;1.60;;;21.60;99.90;;;;;;5076506;28;20247;-87
2023/07/03 09:25:49;;;;;;;7.15;2.10;;;21.70;99.90;;;;;;5075521;28;20201;-90
2023/07/03 09:28:17;;;;;;;7.28;1.95;;;21.80;99.90;;;;;;5076700;28;20247;-82
2023/07/03 09:30:44;;;;;;;6.03;1.58;;;21.70;99.90;;;;;;5076312;28;20233;-92
2023/07/03 09:33:11;;;;;;;8.57;2.13;;;21.70;99.90;;;;;;5076809;28;20228;-86
2023/07/03 09:35:40;;;;;;;9.05;2.33;;;21.70;99.90;;;;;;5077368;28;20288;-86
2023/07/03 09:38:13;;;;;;;10.13;2.45;;;21.90;99.90;;;;;;5080545;28;20232;-89
2023/07/03 09:40:43;;;;;;;11.55;3.10;;;22.00;99.90;;;;;;5097336;28;20200;-92
2023/07/03 09:43:14;;;;;;;10.13;2.83;;;22.20;99.90;;;;;;5097289;28;20275;-89
2023/07/03 09:45:42;;;;;;;7.38;2.47;;;22.30;99.90;;;;;;5096409;28;20247;-90
2023/07/03 09:48:18;;;;;;;9.45;2.47;;;22.30;99.90;;;;;;5095980;28;20666;-91
2023/07/03 09:50:45;;;;;;;10.95;3.22;;;22.50;99.90;;;;;;5081323;28;20272;-86
2023/07/03 09:53:19;;;;;;;6.65;2.55;;;22.60;99.90;;;;;;5077099;28;20229;-91
2023/07/03 09:55:46;;;;;;;8.13;2.45;;;22.70;99.90;;;;;;5077368;28;20201;-91
2023/07/03 09:58:15;;;;;;;12.07;2.63;;;23.00;99.90;;;;;;5095352;28;20200;-88
2023/07/03 10:00:47;;;;;;;10.10;2.78;;;23.20;99.90;;;;;;5116671;28;20221;-85
2023/07/03 10:03:22;;;;;;;8.20;2.75;;;23.30;99.90;;;;;;5090533;28;20232;-85
2023/07/03 10:05:50;;;;;;;5.00;2.30;;;23.20;1.00;;;;;;5076504;28;20197;-92
2023/07/03 10:08:22;;;;;;;10.63;2.55;;;23.20;99.90;;;;;;5076626;28;20275;-88
2023/07/03 10:10:49;;;;;;;5.93;2.30;;;23.10;99.90;;;;;;5085596;28;20211;-87
2023/07/03 10:13:24;;;;;;;8.13;2.40;;;22.80;99.90;;;;;;5084477;28;20219;-89
2023/07/03 10:15:51;;;;;;;11.68;2.58;;;22.70;99.90;;;;;;5078684;28;20280;-91
2023/07/03 10:18:21;;;;;;;10.85;2.75;;;22.80;99.90;;;;;;5079669;28;20208;-93
2023/07/03 10:20:51;;;;;;;6.63;2.55;;;22.70;99.90;;;;;;5096359;28;20213;-89
2023/07/03 10:23:23;;;;;;;7.18;2.55;;;22.60;99.90;;;;;;5081177;28;20233;-91
2023/07/03 10:25:54;;;;;;;7.05;2.25;;;22.70;99.90;;;;;;5084389;28;20205;-87
2023/07/03 10:28:26;;;;;;;7.72;2.47;;;22.80;99.90;;;;;;5101925;28;20206;-88
2023/07/03 10:30:58;;;;;;;8.93;2.28;;;22.90;99.90;;;;;;5081934;28;20228;-89
2023/07/03 10:33:30;;;;;;;7.03;2.65;;;23.00;99.90;;;;;;5076207;28;20237;-90
2023/07/03 10:35:58;;;;;;;7.03;2.20;;;23.00;99.90;;;;;;5076192;28;20284;-85
2023/07/03 10:38:34;;;;;;;7.65;3.03;;;23.20;99.90;;;;;;5076985;28;20284;-93
2023/07/03 10:41:07;;;;;;;7.75;2.58;;;23.20;99.90;;;;;;5089759;28;20196;-91
2023/07/03 10:43:39;;;;;;;9.20;2.60;;;23.40;99.90;;;;;;5089523;28;20225;-83
2023/07/03 10:46:08;;;;;;;7.93;2.13;;;23.50;1.00;;;;;;5076163;28;20252;-81
2023/07/03 10:48:37;;;;;;;6.97;2.03;;;23.80;99.90;;;;;;5075987;28;20197;-81
2023/07/03 10:51:13;;;;;;;9.27;2.40;;;23.90;99.90;;;;;;5076374;28;20235;-85
2023/07/03 10:53:45;;;;;;;6.22;1.67;;;24.10;99.90;;;;;;5092808;28;20516;-83
2023/07/03 10:56:21;;;;;;;10.68;2.72;;;24.10;99.90;;;;;;5095669;28;20195;-85
2023/07/03 10:58:57;;;;;;;6.40;2.00;;;24.00;99.90;;;;;;5096172;28;20224;-87
2023/07/03 11:01:31;;;;;;;7.15;2.17;;;23.80;99.90;;;;;;5095552;28;20208;-89
2023/07/03 11:04:19;;;;;;;9.75;2.42;;;23.50;99.90;;;;;;5077531;28;20192;-81
2023/07/03 11:06:53;;;;;;;5.95;2.10;;;23.40;99.90;;;;;;5095566;28;20283;-85
2023/07/03 11:09:29;;;;;;;6.57;2.20;;;23.30;99.90;;;;;;5088824;28;20224;-82
2023/07/03 11:12:05;;;;;;;6.40;2.38;;;23.40;99.90;;;;;;5076564;28;20226;-82
2023/07/03 11:14:40;;;;;;;8.15;2.10;;;23.40;99.90;;;;;;5075540;28;20229;-84
2023/07/03 11:17:14;;;;;;;8.07;2.35;;;23.30;99.90;;;;;;5074271;28;20580;-83
2023/07/03 11:19:48;;;;;;;5.75;2.13;;;23.30;99.90;;;;;;5086669;28;20204;-85
2023/07/03 11:22:18;;;;;;;8.30;2.63;;;23.30;99.90;;;;;;5073156;28;20263;-87
2023/07/03 11:25:01;;;;;;;7.65;2.55;;;23.40;99.90;;;;;;5079929;28;20239;-86
2023/07/03 11:27:36;;;;;;;9.77;2.17;;;23.50;99.90;;;;;;5094199;28;20295;-83
2023/07/03 11:30:04;;;;;;;6.68;2.40;;;23.50;99.90;;;;;;5087908;28;20585;-87
2023/07/03 11:32:33;;;;;;;9.00;2.53;;;23.40;1.00;;;;;;5088420;28;20193;-85
2023/07/03 11:35:01;;;;;;;6.93;2.25;;;23.30;99.90;;;;;;5092654;28;20568;-82
2023/07/03 11:37:46;;;;;;;8.73;2.30;;;23.00;99.90;;;;;;5092917;28;20204;-83
2023/07/03 11:40:35;;;;;;;7.43;2.60;;;22.80;99.90;;;;;;5093722;28;20262;-88
2023/07/03 11:43:21;;;;;;;6.53;2.42;;;22.70;99.90;;;;;;5087996;28;20204;-83
2023/07/03 11:46:03;;;;;;;8.02;2.33;;;22.30;99.90;;;;;;5093929;28;20209;-81
2023/07/03 11:48:32;;;;;;;10.45;2.47;;;22.00;99.90;;;;;;5094180;28;20204;-85
2023/07/03 11:51:01;;;;;;;9.43;2.88;;;21.70;99.90;;;;;;5090590;28;20209;-85
2023/07/03 11:53:33;;;;;;;11.20;2.40;;;21.40;99.90;;;;;;5095042;28;20308;-88
2023/07/03 11:56:01;;;;;;;9.70;2.88;;;21.20;99.90;;;;;;5083343;28;20665;-87
2023/07/03 11:58:32;;;;;;;13.10;2.95;;;21.20;99.90;;;;;;5087645;28;20217;-88
2023/07/03 12:01:30;;;;;;;7.50;2.90;;;21.00;99.90;;;;;;5086491;28;20543;-91
2023/07/03 12:03:58;;;;;;;7.93;2.58;;;20.90;99.90;;;;;;5073951;28;20190;-83
2023/07/03 12:06:47;;;;;;;9.13;2.30;;;20.60;99.90;;;;;;5073423;28;20205;-89
2023/07/03 12:09:22;;;;;;;8.57;2.47;;;20.50;99.90;;;;;;5073704;28;20293;-89
2023/07/03 12:12:16;;;;;;;8.35;2.40;;;20.40;99.90;;;;;;5080363;28;20192;-85
2023/07/03 12:14:57;;;;;;;12.88;3.10;;;20.50;99.90;;;;;;5093722;28;20224;-87
2023/07/03 12:17:26;;;;;;;10.65;2.60;;;20.60;99.90;;;;;;5094311;28;20192;-84
2023/07/03 12:20:05;;;;;;;11.65;3.20;;;20.80;99.90;;;;;;5093818;28;20556;-89
2023/07/03 12:22:37;;;;;;;12.02;3.33;;;20.80;99.90;;;;;;5082651;28;20188;-85
2023/07/03 12:25:06;;;;;;;9.13;2.80;;;20.80;99.90;;;;;;5093629;28;20193;-88
2023/07/03 12:27:35;;;;;;;8.95;2.80;;;20.80;99.90;;;;;;5083221;28;20239;-83
2023/07/03 12:30:02;;;;;;;12.65;3.85;;;20.70;99.90;;;;;;5073229;28;20229;-87
2023/07/03 12:32:30;;;;;;;6.43;2.00;;;20.90;99.90;;;;;;5073196;28;20528;-89
2023/07/03 12:35:11;;;;;;;9.07;2.70;;;21.20;99.90;;;;;;5071775;28;20260;-90
2023/07/03 12:37:43;;;;;;;7.38;2.08;;;21.30;99.90;;;;;;5090050;28;20193;-85
2023/07/03 12:40:12;;;;;;;9.23;2.50;;;21.50;99.90;;;;;;5092197;28;20197;-82
2023/07/03 12:42:40;;;;;;;6.35;2.47;;;21.70;99.90;;;;;;5096852;28;20204;-85
2023/07/03 12:45:14;;;;;;;10.85;3.08;;;22.00;99.90;;;;;;5095004;28;20507;-86
2023/07/03 12:47:41;;;;;;;11.38;2.75;;;22.10;99.90;;;;;;5092395;28;20237;-84
2023/07/03 12:50:14;;;;;;;9.27;2.55;;;22.00;99.90;;;;;;5096151;28;20192;-83
2023/07/03 12:52:41;;;;;;;11.05;2.88;;;22.00;99.90;;;;;;5095820;28;20263;-77
2023/07/03 12:55:09;;;;;;;11.20;2.88;;;21.90;99.90;;;;;;5094488;28;20580;-83
2023/07/03 12:57:38;;;;;;;10.45;4.00;;;21.90;99.90;;;;;;5093945;28;20330;-88